Time;durP1;ratioP1;P1;durP2;ratioP2;P2;SDS_P1;SDS_P2;PMS_P1;PMS_P2;Temp;Humidity;BMP_temperature;BMP_pressure;BME280_temperature;BME280_humidity;BME280_pressure;Samples;Min_cycle;Max_cycle;Signal;HPM_P1;HPM_P2
2024/01/11 00:00:30;;;;;;;505.25;221.68;;;-10.10;99.90;;;;;;5049045;28;20017;-54
2024/01/11 00:02:56;;;;;;;505.33;213.10;;;-10.10;99.90;;;;;;5046688;28;20120;-58
2024/01/11 20:13:31;;;;;;;93.88;36.65;;;-2.30;99.90;;;;;;5042043;27;20473;-54
2024/01/11 20:15:57;;;;;;;95.65;40.35;;;-2.40;99.90;;;;;;5043952;28;20037;-55
2024/01/11 20:18:23;;;;;;;97.33;41.70;;;-2.40;99.90;;;;;;5043827;28;21528;-55
2024/01/11 20:20:51;;;;;;;107.93;46.73;;;-2.40;99.90;;;;;;5043835;28;20044;-53
2024/01/11 20:23:17;;;;;;;129.52;51.22;;;-2.40;99.90;;;;;;5040369;28;20055;-53
2024/01/11 20:25:43;;;;;;;137.90;52.50;;;-2.40;99.90;;;;;;5040467;28;20440;-55
2024/01/11 20:28:10;;;;;;;135.27;54.63;;;-2.30;99.90;;;;;;5042679;28;20045;-54
2024/01/11 20:30:37;;;;;;;132.27;56.97;;;-2.30;99.90;;;;;;5043015;28;20135;-53
2024/01/11 20:33:03;;;;;;;141.10;54.25;;;-2.30;99.90;;;;;;5041179;28;21436;-52
2024/01/11 20:35:29;;;;;;;126.72;50.03;;;-2.30;99.90;;;;;;5042513;28;20071;-52
2024/01/11 20:37:55;;;;;;;118.57;48.88;;;-2.30;99.90;;;;;;5042788;28;20028;-54
2024/01/11 20:40:20;;;;;;;109.03;43.28;;;-2.30;99.90;;;;;;5043051;28;20036;-54
2024/01/11 20:42:46;;;;;;;112.80;45.67;;;-2.20;99.90;;;;;;5039923;28;20358;-52
2024/01/11 20:45:12;;;;;;;118.57;48.65;;;-2.20;99.90;;;;;;5043395;28;20036;-53
2024/01/11 20:47:38;;;;;;;122.32;49.53;;;-2.30;99.90;;;;;;5041612;28;20177;-53
2024/01/11 20:50:04;;;;;;;102.63;45.03;;;-2.20;99.90;;;;;;5042564;28;20060;-53
2024/01/11 20:52:31;;;;;;;96.28;41.97;;;-2.20;99.90;;;;;;5041414;28;20032;-54
2024/01/11 20:54:56;;;;;;;85.43;39.53;;;-2.20;99.90;;;;;;5043113;28;21052;-53
2024/01/11 20:57:22;;;;;;;100.25;43.70;;;-2.20;99.90;;;;;;5043563;28;20044;-53
2024/01/11 20:59:48;;;;;;;95.90;41.65;;;-2.20;99.90;;;;;;5043716;28;20060;-54
2024/01/11 21:02:13;;;;;;;79.90;37.63;;;-2.20;99.90;;;;;;5041145;28;20050;-52
2024/01/11 21:04:39;;;;;;;79.45;35.00;;;-2.20;99.90;;;;;;5043574;28;20025;-54
2024/01/11 21:07:05;;;;;;;78.55;36.83;;;-2.20;99.90;;;;;;5042652;28;20505;-53
2024/01/11 21:09:33;;;;;;;84.70;35.65;;;-2.20;99.90;;;;;;5040991;28;20514;-52
2024/01/11 21:11:59;;;;;;;83.68;37.42;;;-2.20;99.90;;;;;;5039319;28;20061;-53
2024/01/11 21:14:26;;;;;;;75.77;34.50;;;-2.10;99.90;;;;;;5042202;28;20041;-53
2024/01/11 21:16:51;;;;;;;67.00;31.13;;;-2.10;99.90;;;;;;5041849;28;20120;-52
2024/01/11 21:19:17;;;;;;;79.20;33.57;;;-2.10;99.90;;;;;;5041628;28;20510;-53
2024/01/11 21:21:45;;;;;;;75.68;32.75;;;-2.10;99.90;;;;;;5042794;28;20063;-53
2024/01/11 21:24:11;;;;;;;73.05;31.45;;;-2.10;99.90;;;;;;5029580;28;20106;-52
2024/01/11 21:26:36;;;;;;;65.18;30.88;;;-2.10;99.90;;;;;;5028756;28;20147;-53
2024/01/11 21:29:02;;;;;;;70.65;30.23;;;-2.10;99.90;;;;;;5029275;28;20029;-53
2024/01/11 21:31:33;;;;;;;68.10;30.75;;;-2.10;99.90;;;;;;5028501;28;20048;-52
2024/01/11 21:34:04;;;;;;;66.95;30.00;;;-2.10;99.90;;;;;;5026717;28;20598;-53
2024/01/11 21:36:32;;;;;;;66.30;29.80;;;-2.00;99.90;;;;;;5029079;28;20060;-53
2024/01/11 21:38:58;;;;;;;68.68;31.05;;;-2.00;99.90;;;;;;5027835;28;20053;-53
2024/01/11 21:41:25;;;;;;;61.50;29.35;;;-2.10;99.90;;;;;;5059091;28;20032;-52
2024/01/11 21:43:52;;;;;;;58.63;29.60;;;-2.00;99.90;;;;;;5058392;28;20035;-52
2024/01/11 21:46:18;;;;;;;65.90;28.90;;;-2.00;99.90;;;;;;5057236;28;20028;-54
2024/01/11 21:48:44;;;;;;;59.10;27.10;;;-2.00;99.90;;;;;;5057006;28;20696;-52
2024/01/11 21:51:10;;;;;;;64.80;29.23;;;-2.00;99.90;;;;;;5064423;28;20017;-54
2024/01/11 21:53:36;;;;;;;62.65;29.40;;;-2.00;99.90;;;;;;5056806;28;20044;-51
2024/01/11 21:56:02;;;;;;;78.70;32.83;;;-2.00;99.90;;;;;;5059013;28;20394;-53
2024/01/11 21:58:28;;;;;;;72.05;35.00;;;-2.00;99.90;;;;;;5057110;28;20017;-53
2024/01/11 22:00:55;;;;;;;75.72;33.13;;;-2.00;99.90;;;;;;5057071;28;20372;-52
2024/01/11 22:03:22;;;;;;;78.10;34.38;;;-2.00;99.90;;;;;;5058650;28;20028;-52
2024/01/11 22:05:48;;;;;;;84.97;37.42;;;-2.10;99.90;;;;;;5056540;28;20559;-55
2024/01/11 22:08:17;;;;;;;89.45;37.97;;;-2.00;99.90;;;;;;5056525;28;20123;-54
2024/01/11 22:10:43;;;;;;;81.43;34.63;;;-2.00;99.90;;;;;;5055570;28;20083;-53
2024/01/11 22:13:13;;;;;;;83.78;36.10;;;-2.00;99.90;;;;;;5054376;28;20140;-55
2024/01/11 22:15:40;;;;;;;82.10;36.13;;;-2.00;99.90;;;;;;5053755;28;20056;-52
2024/01/11 22:18:06;;;;;;;84.80;36.95;;;-2.00;99.90;;;;;;5054599;28;20104;-54
2024/01/11 22:20:32;;;;;;;85.38;36.53;;;-2.00;99.90;;;;;;5055664;28;20043;-55
2024/01/11 22:22:58;;;;;;;75.97;36.40;;;-2.00;99.90;;;;;;5057135;28;20024;-52
2024/01/11 22:25:25;;;;;;;88.10;37.80;;;-2.00;99.90;;;;;;5054814;28;20046;-52
2024/01/11 22:27:51;;;;;;;81.57;39.53;;;-2.00;99.90;;;;;;5056609;28;20036;-52
2024/01/11 22:30:17;;;;;;;96.00;39.70;;;-2.00;99.90;;;;;;5056821;28;20043;-53
2024/01/11 22:32:43;;;;;;;98.65;40.22;;;-2.00;99.90;;;;;;5057800;28;20043;-52
2024/01/11 22:35:09;;;;;;;91.38;40.75;;;-2.00;99.90;;;;;;5055543;28;20033;-51
2024/01/11 22:37:35;;;;;;;104.88;41.60;;;-2.00;99.90;;;;;;5066089;28;20039;-55
2024/01/11 22:40:00;;;;;;;102.13;40.80;;;-1.90;99.90;;;;;;5064555;28;20028;-51
2024/01/11 22:42:28;;;;;;;119.07;48.83;;;-1.90;99.90;;;;;;5053850;28;20045;-54
2024/01/11 22:44:53;;;;;;;116.63;44.63;;;-2.00;99.90;;;;;;5045943;28;20349;-53
2024/01/11 22:47:19;;;;;;;126.65;49.83;;;-2.00;99.90;;;;;;5048999;28;20039;-52
2024/01/11 22:49:45;;;;;;;115.63;46.57;;;-2.00;99.90;;;;;;5057045;28;20395;-52
2024/01/11 22:52:10;;;;;;;102.28;42.72;;;-2.00;99.90;;;;;;5054183;28;20711;-52
2024/01/11 22:54:40;;;;;;;99.25;42.00;;;-1.90;99.90;;;;;;5056117;28;20067;-51
2024/01/11 22:57:06;;;;;;;91.55;38.92;;;-1.90;99.90;;;;;;5057528;28;20032;-55
2024/01/11 22:59:34;;;;;;;92.75;39.22;;;-1.90;99.90;;;;;;5062383;28;20032;-53
